createdAt,value
2022-11-19T00:01:13.419Z,-7.15
2022-11-19T00:03:40.988Z,-7.07
2022-11-19T00:06:13.049Z,-7.15
2022-11-19T00:08:40.177Z,-7.28
2022-11-19T00:11:11.770Z,-7.33
2022-11-19T00:13:39.597Z,-7.35
2022-11-19T00:16:11.552Z,-7.33
2022-11-19T00:18:38.337Z,-7.29
2022-11-19T00:21:10.190Z,-7.31
2022-11-19T00:23:37.190Z,-7.42
2022-11-19T00:26:12.576Z,-7.38
2022-11-19T00:28:39.634Z,-7.38
2022-11-19T00:31:08.985Z,-7.39
2022-11-19T00:33:39.586Z,-7.44
2022-11-19T00:36:08.768Z,-7.47
2022-11-19T00:38:35.661Z,-7.47
2022-11-19T00:41:05.424Z,-7.44
2022-11-19T00:43:47.531Z,-7.46
2022-11-19T00:46:21.724Z,-7.42
2022-11-19T00:48:49.613Z,-7.50
2022-11-19T00:51:18.236Z,-7.58
2022-11-19T00:53:45.132Z,-7.64
2022-11-19T00:56:13.866Z,-7.67
2022-11-19T00:58:43.745Z,-7.58
2022-11-19T01:01:11.696Z,-7.49
2022-11-19T01:03:39.324Z,-7.41
2022-11-19T01:06:06.585Z,-7.46
2022-11-19T01:08:34.591Z,-7.56
2022-11-19T01:11:06.220Z,-7.66
2022-11-19T01:13:36.053Z,-7.67
2022-11-19T01:16:05.548Z,-7.61
2022-11-19T01:18:32.301Z,-7.58
2022-11-19T01:20:59.155Z,-7.59
2022-11-19T01:23:25.805Z,-7.64
2022-11-19T01:25:52.618Z,-7.70
2022-11-19T01:28:21.809Z,-7.67
2022-11-19T01:30:48.518Z,-7.68
2022-11-19T01:33:15.618Z,-7.70
2022-11-19T01:35:42.276Z,-7.66
2022-11-19T01:38:09.142Z,-7.75
2022-11-19T01:40:43.603Z,-7.86
2022-11-19T01:43:13.696Z,-7.88
2022-11-19T01:45:45.983Z,-7.89
2022-11-19T01:48:25.332Z,-7.90
2022-11-19T01:51:25.525Z,-7.89
2022-11-19T01:53:55.590Z,-7.91
2022-11-19T01:56:22.746Z,-7.89
2022-11-19T01:58:52.882Z,-7.93
2022-11-19T02:01:22.657Z,-7.96
2022-11-19T02:03:51.385Z,-7.94
2022-11-19T02:06:19.765Z,-7.85
2022-11-19T02:08:50.059Z,-7.85
2022-11-19T02:11:25.801Z,-7.83
2022-11-19T02:14:10.874Z,-7.85
2022-11-19T02:16:52.775Z,-7.81
2022-11-19T02:20:02.461Z,-7.82
2022-11-19T02:23:03.758Z,-7.88
2022-11-19T02:25:49.545Z,-7.90
2022-11-19T02:28:43.749Z,-7.87
2022-11-19T02:31:15.288Z,-7.97
2022-11-19T02:33:58.563Z,-7.96
2022-11-19T02:36:35.764Z,-7.96
2022-11-19T02:39:07.084Z,-7.93
2022-11-19T02:41:46.271Z,-7.94
2022-11-19T02:44:36.838Z,-7.93
2022-11-19T02:47:05.863Z,-7.91
2022-11-19T02:49:34.237Z,-7.94
2022-11-19T02:52:01.611Z,-7.86
2022-11-19T02:54:30.279Z,-7.90
2022-11-19T02:57:00.327Z,-7.86
2022-11-19T03:00:23.411Z,-7.78
2022-11-19T03:03:38.059Z,-7.85
2022-11-19T03:06:12.472Z,-7.88
2022-11-19T03:08:39.163Z,-7.88
2022-11-19T03:11:29.387Z,-8.01
2022-11-19T03:14:42.600Z,-7.98
2022-11-19T03:17:18.351Z,-7.90
2022-11-19T03:19:50.253Z,-7.80
2022-11-19T03:22:53.587Z,-7.73
2022-11-19T03:25:24.464Z,-7.62
2022-11-19T03:27:54.197Z,-7.59
2022-11-19T03:30:23.223Z,-7.51
2022-11-19T03:33:08.983Z,-7.47
2022-11-19T03:35:46.923Z,-7.42
2022-11-19T03:38:17.135Z,-7.40
2022-11-19T03:40:44.662Z,-7.34
2022-11-19T03:43:13.701Z,-7.31
2022-11-19T03:45:43.379Z,-7.27
2022-11-19T03:48:12.289Z,-7.21
2022-11-19T03:50:52.168Z,-7.15
2022-11-19T03:53:19.839Z,-7.19
2022-11-19T03:56:13.058Z,-7.05
2022-11-19T03:58:44.232Z,-7.04
2022-11-19T04:01:11.266Z,-7.03
2022-11-19T04:03:38.591Z,-7.01
2022-11-19T04:06:05.686Z,-6.96
2022-11-19T04:08:35.155Z,-6.92
2022-11-19T04:13:28.053Z,-6.74
2022-11-19T04:15:55.404Z,-6.66
2022-11-19T04:18:22.034Z,-6.56
2022-11-19T04:20:48.710Z,-6.50
2022-11-19T04:23:15.407Z,-6.45
2022-11-19T04:25:46.309Z,-6.34
2022-11-19T04:28:12.922Z,-6.34
2022-11-19T04:30:39.491Z,-6.34
2022-11-19T04:33:06.237Z,-6.32
2022-11-19T04:35:33.522Z,-6.30
2022-11-19T04:38:03.141Z,-6.27
2022-11-19T04:40:29.688Z,-6.20
2022-11-19T04:42:56.259Z,-6.13
2022-11-19T04:45:23.129Z,-6.04
2022-11-19T04:47:49.739Z,-5.93
2022-11-19T04:50:18.430Z,-5.97
2022-11-19T04:52:45.032Z,-5.94
2022-11-19T04:55:11.860Z,-5.92
2022-11-19T04:57:39.895Z,-5.88
2022-11-19T05:00:07.147Z,-5.90
2022-11-19T05:02:33.711Z,-5.85
2022-11-19T05:05:00.463Z,-5.83
2022-11-19T05:07:27.289Z,-5.81
2022-11-19T05:09:53.925Z,-5.73
2022-11-19T05:12:20.607Z,-5.66
2022-11-19T05:14:47.409Z,-5.69
2022-11-19T05:17:13.998Z,-5.70
2022-11-19T05:19:40.625Z,-5.65
2022-11-19T05:22:07.247Z,-5.61
2022-11-19T05:24:36.224Z,-5.59
2022-11-19T05:27:03.573Z,-5.55
2022-11-19T05:29:30.190Z,-5.47
2022-11-19T05:31:56.810Z,-5.43
2022-11-19T05:34:23.575Z,-5.43
2022-11-19T05:36:50.277Z,-5.35
2022-11-19T05:39:21.842Z,-5.31
2022-11-19T05:41:48.945Z,-5.13
2022-11-19T05:44:15.578Z,-5.15
2022-11-19T05:46:42.183Z,-5.14
2022-11-19T05:49:08.866Z,-5.13
2022-11-19T05:51:35.772Z,-5.05
2022-11-19T05:54:02.563Z,-5.04
2022-11-19T05:56:29.186Z,-4.93
2022-11-19T05:58:55.794Z,-4.95
2022-11-19T06:01:29.392Z,-4.89
2022-11-19T06:03:56.147Z,-4.84
2022-11-19T06:06:22.913Z,-4.81
2022-11-19T06:08:50.058Z,-4.67
2022-11-19T06:11:35.606Z,-4.68
2022-11-19T06:14:03.932Z,-4.64
2022-11-19T06:16:30.616Z,-4.65
2022-11-19T06:18:57.335Z,-4.59
2022-11-19T06:21:24.036Z,-4.44
2022-11-19T06:23:50.649Z,-4.40
2022-11-19T06:26:25.218Z,-4.38
2022-11-19T06:28:52.157Z,-4.42
2022-11-19T06:31:19.583Z,-4.42
2022-11-19T06:33:46.551Z,-4.38
2022-11-19T06:36:13.503Z,-4.32
2022-11-19T06:38:40.296Z,-4.33
2022-11-19T06:41:07.022Z,-4.32
2022-11-19T06:43:33.912Z,-4.26
2022-11-19T06:46:00.726Z,-4.18
2022-11-19T06:48:27.507Z,-4.18
2022-11-19T06:50:54.180Z,-4.12
2022-11-19T06:53:20.858Z,-4.13
2022-11-19T06:55:47.567Z,-4.07
2022-11-19T06:58:17.096Z,-3.93
2022-11-19T07:00:43.900Z,-3.96
2022-11-19T07:03:10.574Z,-3.92
2022-11-19T07:05:37.240Z,-3.89
2022-11-19T07:08:04.325Z,-3.85
2022-11-19T07:10:31.833Z,-3.85
2022-11-19T07:12:58.528Z,-3.84
2022-11-19T07:15:25.343Z,-3.80
2022-11-19T07:17:52.132Z,-3.70
2022-11-19T07:20:19.458Z,-3.63
2022-11-19T07:22:46.352Z,-3.57
2022-11-19T07:25:14.979Z,-3.53
2022-11-19T07:27:43.810Z,-3.36
2022-11-19T07:30:10.936Z,-3.29
2022-11-19T07:32:37.800Z,-3.24
2022-11-19T07:35:04.613Z,-3.28
2022-11-19T07:37:33.780Z,-3.22
2022-11-19T07:40:04.226Z,-3.21
2022-11-19T07:42:49.446Z,-3.20
2022-11-19T07:45:18.233Z,-3.10
2022-11-19T07:47:44.990Z,-3.07
2022-11-19T07:50:12.470Z,-2.88
2022-11-19T07:52:39.202Z,-3.03
2022-11-19T07:55:06.591Z,-2.87
2022-11-19T07:57:33.431Z,-2.87
2022-11-19T08:00:00.162Z,-2.83
2022-11-19T08:02:27.146Z,-2.78
2022-11-19T08:04:53.939Z,-2.78
2022-11-19T08:07:20.709Z,-2.73
2022-11-19T08:09:47.671Z,-2.49
2022-11-19T08:12:14.400Z,-2.56
2022-11-19T08:14:43.568Z,-2.54
2022-11-19T08:17:28.717Z,-2.53
2022-11-19T08:19:55.606Z,-2.47
2022-11-19T08:22:22.394Z,-2.58
2022-11-19T08:24:49.499Z,-2.55
2022-11-19T08:27:17.327Z,-2.47
2022-11-19T08:29:44.069Z,-2.46
2022-11-19T08:32:11.160Z,-2.45
2022-11-19T08:34:37.783Z,-2.32
2022-11-19T08:37:04.676Z,-2.13
2022-11-19T08:39:32.012Z,-2.21
2022-11-19T08:42:17.797Z,-2.07
2022-11-19T08:44:46.223Z,-1.96
2022-11-19T08:47:13.101Z,-1.89
2022-11-19T08:49:39.817Z,-1.78
2022-11-19T08:52:06.526Z,-1.66
2022-11-19T08:54:35.741Z,-1.59
2022-11-19T08:57:02.507Z,-1.47
2022-11-19T08:59:29.966Z,-1.42
2022-11-19T09:01:56.819Z,-1.47
2022-11-19T09:04:23.507Z,-1.31
2022-11-19T09:06:50.223Z,-1.29
2022-11-19T09:09:18.130Z,-1.32
2022-11-19T09:11:45.022Z,-1.26
2022-11-19T09:14:11.847Z,-1.06
2022-11-19T09:16:38.969Z,-1.02
2022-11-19T09:19:05.764Z,-1.02
2022-11-19T09:21:34.052Z,-0.96
2022-11-19T09:24:03.964Z,-0.94
2022-11-19T09:26:36.924Z,-0.75
2022-11-19T09:29:04.585Z,-0.62
2022-11-19T09:31:33.122Z,-0.67
2022-11-19T09:34:04.357Z,-0.60
2022-11-19T09:36:31.319Z,-0.57
2022-11-19T09:38:58.631Z,-0.45
2022-11-19T09:41:44.568Z,-0.38
2022-11-19T09:44:36.174Z,-0.34
2022-11-19T09:47:16.064Z,-0.29
2022-11-19T09:49:49.375Z,-0.20
2022-11-19T09:52:18.885Z,-0.08
2022-11-19T09:54:50.921Z,0.01
2022-11-19T09:57:28.336Z,0.10
2022-11-19T09:59:58.142Z,0.22
2022-11-19T10:02:24.947Z,0.29
2022-11-19T10:04:52.071Z,0.35
2022-11-19T10:07:35.298Z,0.45
2022-11-19T10:10:27.309Z,0.37
2022-11-19T10:13:33.272Z,0.30
2022-11-19T10:16:29.392Z,0.26
2022-11-19T10:19:15.184Z,0.36
2022-11-19T10:21:59.218Z,0.33
2022-11-19T10:24:43.135Z,0.40
2022-11-19T10:27:23.665Z,0.44
2022-11-19T10:29:52.745Z,0.52
2022-11-19T10:32:27.926Z,0.65
2022-11-19T10:34:58.705Z,0.71
2022-11-19T10:37:30.420Z,0.65
2022-11-19T10:40:04.152Z,0.74
2022-11-19T10:42:39.297Z,0.82
2022-11-19T10:45:16.032Z,0.99
2022-11-19T10:47:58.427Z,0.93
2022-11-19T10:50:25.759Z,1.00
2022-11-19T10:53:06.907Z,1.07
2022-11-19T10:55:40.937Z,1.01
2022-11-19T10:58:10.627Z,0.97
2022-11-19T11:00:38.931Z,0.88
2022-11-19T11:03:07.090Z,0.97
2022-11-19T11:05:54.384Z,0.89
2022-11-19T11:08:23.921Z,0.84
2022-11-19T11:10:51.624Z,0.89
2022-11-19T11:13:56.114Z,0.91
2022-11-19T11:16:26.661Z,0.81
2022-11-19T11:18:54.731Z,0.90
2022-11-19T11:21:29.556Z,0.80
2022-11-19T11:23:56.775Z,0.66
2022-11-19T11:26:28.282Z,0.68
2022-11-19T11:28:57.594Z,0.55
2022-11-19T11:31:33.283Z,0.36
2022-11-19T11:34:02.218Z,0.31
2022-11-19T11:36:31.897Z,0.52
2022-11-19T11:39:01.237Z,0.36
2022-11-19T11:44:23.949Z,0.36
2022-11-19T11:46:56.442Z,0.45
2022-11-19T11:49:26.211Z,0.53
2022-11-19T11:51:59.857Z,0.57
2022-11-19T11:54:26.799Z,0.61
2022-11-19T11:56:53.530Z,0.66
2022-11-19T11:59:26.121Z,0.79
2022-11-19T12:01:58.040Z,0.62
2022-11-19T12:04:24.928Z,0.64
2022-11-19T12:07:06.068Z,0.74
2022-11-19T12:09:45.396Z,0.84
2022-11-19T12:12:23.411Z,0.87
2022-11-19T12:15:13.625Z,1.04
2022-11-19T12:17:49.633Z,1.07
2022-11-19T12:20:46.965Z,1.05
2022-11-19T12:23:35.161Z,1.11
2022-11-19T12:26:23.584Z,1.15
2022-11-19T12:29:14.674Z,1.22
2022-11-19T12:32:19.473Z,1.28
2022-11-19T12:35:14.187Z,1.29
2022-11-19T12:38:19.704Z,1.34
2022-11-19T12:41:11.429Z,1.38
2022-11-19T12:43:58.372Z,1.47
2022-11-19T12:46:36.662Z,1.38
2022-11-19T12:49:35.570Z,1.60
2022-11-19T12:52:25.378Z,1.56
2022-11-19T12:55:04.571Z,1.59
2022-11-19T12:57:52.114Z,1.55
2022-11-19T13:00:21.803Z,1.65
2022-11-19T13:03:14.956Z,1.65
2022-11-19T13:06:03.691Z,1.72
2022-11-19T13:08:30.879Z,1.69
2022-11-19T13:11:21.873Z,1.69
2022-11-19T13:13:52.679Z,1.63
2022-11-19T13:16:21.669Z,1.61
2022-11-19T13:18:51.873Z,1.86
2022-11-19T13:21:29.807Z,1.89
2022-11-19T13:23:56.922Z,1.96
2022-11-19T13:26:30.331Z,1.78
2022-11-19T13:29:06.240Z,1.75
2022-11-19T13:31:43.850Z,1.78
2022-11-19T13:34:19.445Z,1.69
2022-11-19T13:36:58.171Z,1.81
2022-11-19T13:39:35.185Z,1.70
2022-11-19T13:42:22.773Z,1.75
2022-11-19T13:44:49.585Z,1.68
2022-11-19T13:47:21.603Z,1.65
2022-11-19T13:50:18.781Z,1.73
2022-11-19T13:52:56.650Z,1.75
2022-11-19T13:55:32.233Z,1.73
2022-11-19T13:58:22.111Z,1.64
2022-11-19T14:01:08.547Z,1.57
2022-11-19T14:03:44.615Z,1.61
2022-11-19T14:06:26.267Z,1.60
2022-11-19T14:08:58.815Z,1.50
2022-11-19T14:11:58.032Z,1.53
2022-11-19T14:15:11.896Z,1.56
2022-11-19T14:18:15.702Z,1.56
2022-11-19T14:21:03.319Z,1.65
2022-11-19T14:24:02.054Z,1.56
2022-11-19T14:26:41.064Z,1.40
2022-11-19T14:29:26.073Z,1.45
2022-11-19T14:32:08.069Z,1.31
2022-11-19T14:34:36.904Z,1.23
2022-11-19T14:37:13.314Z,1.17
2022-11-19T14:39:43.503Z,1.24
2022-11-19T14:42:16.107Z,1.24
2022-11-19T14:44:44.544Z,1.13
2022-11-19T14:47:28.669Z,1.12
2022-11-19T14:49:59.376Z,1.19
2022-11-19T14:52:35.478Z,1.01
2022-11-19T14:55:06.473Z,1.13
2022-11-19T14:57:36.653Z,1.03
2022-11-19T15:00:23.186Z,1.13
2022-11-19T15:02:52.295Z,1.09
2022-11-19T15:05:20.507Z,1.09
2022-11-19T15:07:55.819Z,0.95
2022-11-19T15:10:27.150Z,0.92
2022-11-19T15:13:24.362Z,0.85
2022-11-19T15:15:54.558Z,0.84
2022-11-19T15:18:57.306Z,0.83
2022-11-19T15:21:48.383Z,0.66
2022-11-19T15:24:35.204Z,0.83
2022-11-19T15:27:04.778Z,0.75
2022-11-19T15:29:57.097Z,0.63
2022-11-19T15:32:47.921Z,0.59
2022-11-19T15:35:26.376Z,0.66
2022-11-19T15:38:04.093Z,0.63
2022-11-19T15:40:34.090Z,0.60
2022-11-19T15:43:03.762Z,0.55
2022-11-19T15:45:36.479Z,0.60
2022-11-19T15:48:12.490Z,0.48
2022-11-19T15:50:42.006Z,0.54
2022-11-19T15:53:23.133Z,0.49
2022-11-19T15:56:06.110Z,0.48
2022-11-19T15:58:39.148Z,0.49
2022-11-19T16:01:08.228Z,0.51
2022-11-19T16:03:37.965Z,0.43
2022-11-19T16:06:14.430Z,0.45
2022-11-19T16:08:41.423Z,0.42
2022-11-19T16:11:26.982Z,0.44
2022-11-19T16:14:12.805Z,0.68
2022-11-19T16:16:58.108Z,0.56
2022-11-19T16:19:24.795Z,0.64
2022-11-19T16:21:54.531Z,0.60
2022-11-19T16:24:40.287Z,0.63
2022-11-19T16:27:10.522Z,0.53
2022-11-19T16:29:40.670Z,0.51
2022-11-19T16:32:10.296Z,0.62
2022-11-19T16:34:37.158Z,0.49
2022-11-19T16:37:03.927Z,0.58
2022-11-19T16:39:32.072Z,0.64
2022-11-19T16:42:19.178Z,0.65
2022-11-19T16:44:54.789Z,0.62
2022-11-19T16:47:26.210Z,0.62
2022-11-19T16:49:58.645Z,0.50
2022-11-19T16:52:34.767Z,0.55
2022-11-19T16:55:02.255Z,0.63
2022-11-19T16:57:29.857Z,0.61
2022-11-19T17:00:12.890Z,0.56
2022-11-19T17:02:40.372Z,0.49
2022-11-19T17:05:17.238Z,0.46
2022-11-19T17:07:48.139Z,0.44
2022-11-19T17:10:24.565Z,0.47
2022-11-19T17:12:59.875Z,0.51
2022-11-19T17:15:39.800Z,0.49
2022-11-19T17:18:15.587Z,0.54
2022-11-19T17:20:45.420Z,0.45
2022-11-19T17:23:22.442Z,0.49
2022-11-19T17:26:09.502Z,0.44
2022-11-19T17:28:40.950Z,0.51
2022-11-19T17:31:18.541Z,0.42
2022-11-19T17:34:00.512Z,0.43
2022-11-19T17:36:27.735Z,0.41
2022-11-19T17:38:54.526Z,0.47
2022-11-19T17:41:49.162Z,0.56
2022-11-19T17:44:40.662Z,0.45
2022-11-19T17:47:24.032Z,0.52
2022-11-19T17:49:51.456Z,0.53
2022-11-19T17:52:26.284Z,0.54
2022-11-19T17:54:55.807Z,0.45
2022-11-19T17:57:22.475Z,0.46
2022-11-19T17:59:49.118Z,0.46
2022-11-19T18:02:17.241Z,0.55
2022-11-19T18:04:44.932Z,0.52
2022-11-19T18:07:12.493Z,0.55
2022-11-19T18:09:39.691Z,0.60
2022-11-19T18:12:18.256Z,0.47
2022-11-19T18:14:45.614Z,0.52
2022-11-19T18:17:14.650Z,0.53
2022-11-19T18:19:41.581Z,0.52
2022-11-19T18:22:17.043Z,0.54
2022-11-19T18:24:44.060Z,0.54
2022-11-19T18:27:10.670Z,0.51
2022-11-19T18:29:37.309Z,0.52
2022-11-19T18:32:06.986Z,0.56
2022-11-19T18:34:33.702Z,0.57
2022-11-19T18:37:00.383Z,0.79
2022-11-19T18:39:27.031Z,0.67
2022-11-19T18:41:54.062Z,0.66
2022-11-19T18:44:35.979Z,0.63
2022-11-19T18:47:07.420Z,0.61
2022-11-19T18:49:35.030Z,0.62
2022-11-19T18:52:02.909Z,0.62
2022-11-19T18:54:29.734Z,0.54
2022-11-19T18:56:56.449Z,0.49
2022-11-19T18:59:23.569Z,0.50
2022-11-19T19:01:52.169Z,0.53
2022-11-19T19:04:19.400Z,0.50
2022-11-19T19:06:46.097Z,0.54
2022-11-19T19:09:19.456Z,0.53
2022-11-19T19:12:11.405Z,0.62
2022-11-19T19:14:39.527Z,0.57
2022-11-19T19:17:06.130Z,0.57
2022-11-19T19:19:32.807Z,0.62
2022-11-19T19:21:59.452Z,0.65
2022-11-19T19:24:26.613Z,0.65
2022-11-19T19:26:53.193Z,0.67
2022-11-19T19:29:20.664Z,0.63
2022-11-19T19:31:47.745Z,0.59
2022-11-19T19:34:15.221Z,0.58
2022-11-19T19:36:46.484Z,0.60
2022-11-19T19:39:16.899Z,0.76
2022-11-19T19:41:43.809Z,0.69
2022-11-19T19:44:10.490Z,0.62
2022-11-19T19:46:37.079Z,0.55
2022-11-19T19:49:03.747Z,0.54
2022-11-19T19:51:31.443Z,0.56
2022-11-19T19:54:15.046Z,0.56
2022-11-19T19:57:00.740Z,0.64
2022-11-19T19:59:46.810Z,0.51
2022-11-19T20:02:34.866Z,0.45
2022-11-19T20:05:05.701Z,0.50
2022-11-19T20:07:32.449Z,0.53
2022-11-19T20:09:59.418Z,0.58
2022-11-19T20:12:46.093Z,0.64
2022-11-19T20:15:12.933Z,0.66
2022-11-19T20:17:39.624Z,0.58
2022-11-19T20:20:06.799Z,0.56
2022-11-19T20:22:33.560Z,0.59
2022-11-19T20:25:00.253Z,0.72
2022-11-19T20:27:26.908Z,0.70
2022-11-19T20:29:53.816Z,0.58
2022-11-19T20:32:20.546Z,0.67
2022-11-19T20:34:47.194Z,0.58
2022-11-19T20:37:13.883Z,0.55
2022-11-19T20:39:40.463Z,0.55
2022-11-19T20:42:25.684Z,0.50
2022-11-19T20:44:52.373Z,0.54
2022-11-19T20:47:18.981Z,0.55
2022-11-19T20:49:45.613Z,0.54
2022-11-19T20:52:13.292Z,0.54
2022-11-19T20:54:40.010Z,0.51
2022-11-19T20:57:06.674Z,0.62
2022-11-19T20:59:33.385Z,0.51
2022-11-19T21:02:00.096Z,0.40
2022-11-19T21:04:28.665Z,0.37
2022-11-19T21:06:55.410Z,0.36
2022-11-19T21:09:22.579Z,0.57
2022-11-19T21:11:49.461Z,0.59
2022-11-19T21:14:16.141Z,0.49
2022-11-19T21:16:42.824Z,0.40
2022-11-19T21:19:10.553Z,0.47
2022-11-19T21:21:37.608Z,0.47
2022-11-19T21:24:04.394Z,0.59
2022-11-19T21:26:31.076Z,0.52
2022-11-19T21:28:58.975Z,0.49
2022-11-19T21:31:38.435Z,0.55
2022-11-19T21:34:12.964Z,0.46
2022-11-19T21:36:41.019Z,0.46
2022-11-19T21:39:08.094Z,0.45
2022-11-19T21:41:34.832Z,0.45
2022-11-19T21:44:02.186Z,0.50
2022-11-19T21:46:28.909Z,0.65
2022-11-19T21:48:55.537Z,0.50
2022-11-19T21:51:24.994Z,0.52
2022-11-19T21:53:56.282Z,0.63
2022-11-19T21:56:23.877Z,0.63
2022-11-19T21:58:50.484Z,0.47
2022-11-19T22:01:17.355Z,0.46
2022-11-19T22:03:44.070Z,0.55
2022-11-19T22:06:11.729Z,0.50
2022-11-19T22:08:40.872Z,0.57
2022-11-19T22:11:27.087Z,0.51
2022-11-19T22:13:54.085Z,0.53
2022-11-19T22:16:21.497Z,0.52
2022-11-19T22:18:48.191Z,0.49
2022-11-19T22:21:14.768Z,0.54
2022-11-19T22:23:41.360Z,0.59
2022-11-19T22:26:09.775Z,0.62
2022-11-19T22:28:36.424Z,0.53
2022-11-19T22:31:03.466Z,0.54
2022-11-19T22:33:31.074Z,0.55
2022-11-19T22:35:59.404Z,0.49
2022-11-19T22:38:26.271Z,0.49
2022-11-19T22:40:53.822Z,0.45
2022-11-19T22:43:23.319Z,0.39
2022-11-19T22:45:49.901Z,0.47
2022-11-19T22:48:16.495Z,0.41
2022-11-19T22:50:43.181Z,0.45
2022-11-19T22:53:09.853Z,0.43
2022-11-19T22:55:36.861Z,0.51
2022-11-19T22:58:04.389Z,0.43
2022-11-19T23:00:48.613Z,0.50
2022-11-19T23:03:15.439Z,0.54
2022-11-19T23:05:46.789Z,0.40
2022-11-19T23:08:13.362Z,0.43
2022-11-19T23:10:39.948Z,0.35
2022-11-19T23:13:25.134Z,0.45
2022-11-19T23:16:03.189Z,0.42
2022-11-19T23:18:31.080Z,0.39
2022-11-19T23:21:07.356Z,0.38
2022-11-19T23:23:34.064Z,0.41
2022-11-19T23:26:01.921Z,0.46
2022-11-19T23:28:30.393Z,0.42
2022-11-19T23:30:57.006Z,0.42
2022-11-19T23:33:23.955Z,0.32
2022-11-19T23:35:50.560Z,0.48
2022-11-19T23:38:17.183Z,0.51
2022-11-19T23:40:43.817Z,0.36
2022-11-19T23:43:10.423Z,0.55
2022-11-19T23:45:37.084Z,0.49
2022-11-19T23:48:04.309Z,0.46
2022-11-19T23:50:30.946Z,0.44
2022-11-19T23:52:57.523Z,0.49
2022-11-19T23:55:26.522Z,0.56
2022-11-19T23:57:53.162Z,0.41
